Hampton Head 4's and 8's - 2017

by MyRaceTime.co.uk


Results by Category

Published on: 04 February 2017
Race Pos. > Category Pos. Comp. No. Comp. Name Division > Club Name > Time (hh:mm:ss:t) Prize
Category: J18A.2x
39 1 25 WBS-Smith 1 Windsor Boys Sch 00:07:54:1
62 2 10 TSS-Kelly 1 Tideway Scullers Sch 00:08:04:3
64 3 3 MHD-Kleshnev 1 Maidenhead RC 00:08:04:7
78 4 6 WBS-Shewell 1 Windsor Boys Sch 00:08:10:8
91 5 12 WBS-Bodkin 1 Windsor Boys Sch 00:08:14:6
100 6 16 GLB-Sullivan-2 1 Globe 00:08:18:2
101 7 5 GLB-Sullivan 1 Globe 00:08:18:3
103 8 15 MHD-O Mahony 1 Maidenhead RC 00:08:18:7
108 9 24 NOW-Coffey 1 Northwich RC 00:08:19:2
124 10 17 NSC-Tremelling 1 Norwich Sch 00:08:22:5
125 11 8 NOW-Dudley 1 Northwich RC 00:08:23:3
173 12 19 NOW-Burke 1 Northwich RC 00:08:34:9
197 13 28 MBC-Lucas 1 Molesey BC 00:08:40:7
202 14 9 ABV-Young 1 A B Severn 00:08:41:5
207 15 21 KCA-Kahol de jong 1 Kings Sch Canterbury 00:08:42:6
234 16 14 ASL-Mannhardt 1 American Sch 00:08:46:7
248 17 18 BAE-Watkins 1 Barn Elms 00:08:50:7
314 18 26 WIN-St John Butler 1 Winchester Coll 00:09:06:6
327 19 22 WGT-Mahmood 1 Whitgift Sch BC 00:09:09:2
Time Only 1 ASL/TSS-Joss/Skow 1 American Sch Lon/Tideway Scullers 00:08:02:3
Scratched 7 BAE-Holt 1 Barn Elms 00:00:00:0
Scratched 4 CCS-Yate 1 Claires Court Sch 00:00:00:0
Scratched 11 CCS-Costley 1 Claires Court Sch 00:00:00:0
Scratched 20 KGS-J18 1 Kingston G Sch 00:00:00:0
Scratched 23 MHD-Rowe 1 Maidenhead RC 00:00:00:0
Scratched 13 MAR-Fairman 1 Marlow RC 00:00:00:0
Scratched 27 MAR-Simon 1 Marlow RC 00:00:00:0
Scratched 2 WRC-Hearnden 1 Wallingford RC 00:00:00:0
Category: J16A.2x
114 1 50 LEA-den Dulk 1 Lea RC 00:08:20:5
134 2 48 HEN-Issa 1 Henley RC 00:08:25:3
174 3 46 WLT-Suphi 1 Walton RC 00:08:35:6
185 4 57 NOW-Miles 1 Northwich RC 00:08:38:7
211 5 56 LTU-Ferm 1 Latymer Upper Sch 00:08:42:9
213 6 52 WBS-Tebbit 1 Windsor Boys Sch 00:08:42:9
225 7 63 GLB-Kirk 1 Globe 00:08:45:8
255 8 58 TSS-Jonas 1 Tideway Scullers Sch 00:08:53:0
269 9 62 HEN-Sidgwick 1 Henley RC 00:08:56:6
279 10 67 TRC-Murray 1 Thames RC 00:08:57:7
309 11 66 WBS-Cleare 1 Windsor Boys Sch 00:09:05:0
316 12 61 KSE-SCHOOL 1 Kings Sch Ely 00:09:06:9
374 13 64 WGT-Martin 1 Whitgift Sch BC 00:09:21:1
386 14 47 ABV-Mitchell 1 A B Severn 00:09:24:7
409 15 65 WLT-Armella 1 Walton RC 00:09:32:0
417 16 68 LYT-Delfs 1 LYR Tradesmen 00:09:34:6
Scratched 69 BUR-Barrett 1 Burway RC 00:00:00:0
Scratched 55 CCS-Fairley 1 Claires Court Sch 00:00:00:0
Scratched 53 KSE - HEREWARD 1 Kings Sch Ely 00:00:00:0
Scratched 49 KGS-J16 1 Kingston G Sch 00:00:00:0
Scratched 51 MAR-Crossley 1 Marlow RC 00:00:00:0
Scratched 54 NSC-Walton 1 Norwich Sch 00:00:00:0
Scratched 59 NSC-Dixon 1 Norwich Sch 00:00:00:0
Scratched 70 RDH-Sharp 1 Radnor House Sch 00:00:00:0
Scratched 60 WRC-Robson 1 Wallingford RC 00:00:00:0
Category: W.J18A.2x
229 1 71 MBC-Dunford 1 Molesey BC 00:08:46:4
233 2 88 HED-Little 1 Headington Sch 00:08:46:7
243 3 81 ASL-Brunsberg 1 American Sch 00:08:49:7
252 4 73 HED-Pullinger 1 Headington Sch 00:08:52:4
253 5 109 HEN-Kay 1 Henley RC 00:08:52:5
277 6 86 LTU-Thomas 1 Latymer Upper Sch 00:08:57:5
292 7 87 LLA-Jenkins 1 Llandaff RC 00:09:00:5
296 8 108 HED-Hornby 1 Headington Sch 00:09:01:2
303 9 100 TRC-Munyard 1 Thames RC 00:09:03:5
306 10 111 TSS-Wedderburn 1 Tideway Scullers Sch 00:09:04:3
321 11 96 LTU-Lloyd 1 Latymer Upper Sch 00:09:08:1
322 12 94 LTU-Fabrizio 1 Latymer Upper Sch 00:09:08:4
337 13 110 SBT-Croft 1 Surbiton H Sch 00:09:12:3
346 14 106 LTU-Hdjw 1 Latymer Upper Sch 00:09:14:9
349 15 76 GLB-Samuel 1 Globe 00:09:15:5
350 16 74 KCA-Hofmann 1 Kings Sch Canterbury 00:09:16:1
352 17 93 SWP-Garnham 1 Sir William Perkins s Sch 00:09:16:5
354 18 105 STN-Hannam 1 Staines 00:09:16:7
357 19 78 ABV-Skinner 1 A B Severn 00:09:17:5
364 20 75 COX-Millard 1 City of Oxford 00:09:19:0
379 21 83 SWP-Fountain 1 Sir William Perkins s Sch 00:09:22:8
380 22 98 MHD-Ross-Masson 1 Maidenhead RC 00:09:23:3
381 23 84 COX-Beaver 1 City of Oxford 00:09:23:6
385 24 77 SWP-Taylor 1 Sir William Perkins s Sch 00:09:24:7
388 25 99 KSE-HILL HOUSE 1 Kings Sch Ely 00:09:25:5
394 26 89 LYT-Winyard 1 LYR Tradesmen 00:09:27:4
405 27 72 LTU-Marshall 1 Latymer Upper Sch 00:09:30:0
408 28 85 KGS-Gibson 1 Kingston G Sch 00:09:31:2
426 29 79 MHD-Tomasik 1 Maidenhead RC 00:09:39:9
437 30 102 BAE-Griffin 1 Barn Elms 00:09:44:0
439 31 80 WLT-Furber 1 Walton RC 00:09:44:2
442 32 92 LEH-Rhodes 1 Lady E Holles 00:09:48:7
462 33 107 TFN-Tribe 1 Tiffin Sch 00:10:09:3
Scratched 104 KRC-Thompson 1 Kingston RC 00:00:00:0
Scratched 82 LEH-Witt 1 Lady E Holles 00:00:00:0
Scratched 101 MAR-Bird 1 Marlow RC 00:00:00:0
Scratched 95 MBC-Truett 1 Molesey BC 00:00:00:0
Scratched 97 NOW-George 1 Northwich RC 00:00:00:0
Scratched 103 SWP-Dalton 1 Sir William Perkins s Sch 00:00:00:0
Scratched 90 TRC-Knight 1 Thames RC 00:00:00:0
Scratched 91 WEY-Goochild 1 Weybridge RC 00:00:00:0
Category: W.J16A.2x
310 1 132 BKS-Bates 1 Becket RC 00:09:05:2
361 2 138 TSS-Supple 1 Tideway Scullers Sch 00:09:18:6
369 3 131 KSE - HILL 1 Kings Sch Ely 00:09:19:5
372 4 128 WLT-Stenning 1 Walton RC 00:09:20:7
375 5 126 SBT-Slater 1 Surbiton H Sch 00:09:21:4
397 6 123 MBC-Dunford 1 Molesey BC 00:09:28:0
418 7 122 ABV-Surman 1 A B Severn 00:09:34:9
423 8 121 SPG-Strong 1 St Pauls Girls Sch BC 00:09:39:1
424 9 137 SBT-McCarthy 1 Surbiton H Sch 00:09:39:2
441 10 129 SPG-Spielman 1 St Pauls Girls Sch BC 00:09:47:1
455 11 127 SHV-Gordon 1 Shiplake Vikings 00:09:59:8
459 12 125 PHS-Head 1 Putney High Sch 00:10:04:4
466 13 130 PHS-Saunders 1 Putney High Sch 00:10:19:1
Scratched 135 ASL-Lambden 1 American Sch 00:00:00:0
Scratched 124 KSE-Withburger 1 Kings Sch Ely 00:00:00:0
Scratched 134 KGS-Betts 1 Kingston G Sch 00:00:00:0
Scratched 140 MAR-Eveleigh 1 Marlow RC 00:00:00:0
Scratched 139 NOW-Shirley 1 Northwich RC 00:00:00:0
Scratched 136 PHS-Awe 1 Putney High Sch 00:00:00:0
Scratched 133 WHS-Mercer 1 Wimbledon High Sch 00:00:00:0
Category: W.J15A.2x
353 1 299 ROS-Phillips 1 Ross RC 00:09:16:6
378 2 297 TSS-Mavra 1 Tideway Scullers Sch 00:09:22:2
396 3 302 STN-Burton 1 Staines 00:09:27:6
410 4 305 BMS-Eales 1 Bedford Modern Sch 00:09:32:1
415 5 306 WLT-Catlin 1 Walton RC 00:09:34:0
419 6 283 STN-Knight 1 Staines 00:09:37:0
421 7 287 SWP-Martin 1 Sir William Perkins s Sch 00:09:38:6
422 8 289 SWP-Faukentoft-Hansen 1 Sir William Perkins s Sch 00:09:38:9
427 9 293 SWP-Hawkes 1 Sir William Perkins s Sch 00:09:40:3
432 10 304 ROS-Ryan 1 Ross RC 00:09:41:4
435 11 307 ABV-McDermott 1 A B Severn 00:09:42:3
443 12 284 TSS-Campbell 1 Tideway Scullers Sch 00:09:49:0
447 13 292 WHS A Bassadone 1 Wimbledon High Sch 00:09:52:4
452 14 285 BMS-Burchell 1 Bedford Modern Sch 00:09:54:6
457 15 309 LYT-Golub 1 LYR Tradesmen 00:10:03:5
458 16 295 STN-Mason 1 Staines 00:10:04:4
463 17 298 WHS-Wallace 1 Wimbledon High Sch 00:10:12:8
465 18 301 KSE-Kirkpatrick 1 Kings Sch Ely 00:10:18:6
467 19 291 NSC-Shaw 1 Norwich Sch 00:10:25:6
469 20 294 WHS-Hill 1 Wimbledon High Sch 00:10:31:0
Scratched 286 BRY-Cuninghame 1 Bryanston Sch 00:00:00:0
Scratched 296 GLB-Richards 1 Globe 00:00:00:0
Scratched 290 LVA-Binmore 1 LVS Ascot BC 00:00:00:0
Scratched 288 MAR-Huggett 1 Marlow RC 00:00:00:0
Scratched 300 PHS-Hendry 1 Putney High Sch 00:00:00:0
Scratched 303 SWP-Moss 1 Sir William Perkins s Sch 00:00:00:0
Scratched 308 WRC-Barton 1 Wallingford RC 00:00:00:0
Category: J18A.4x-
9 1 469 LEA-Badcott 2 Lea RC 00:07:31:5
10 2 472 TSS-Aladay 2 Tideway Scullers Sch 00:07:31:5
11 3 470 WBS-Smith 2 Windsor Boys Sch 00:07:33:6
12 4 468 SAA-1 2 Star & Arrow 00:07:34:0
13 5 467 MHD-Kleshnev 2 Maidenhead RC 00:07:36:7
16 6 473 NOW-Dudley 2 Northwich RC 00:07:42:2
17 7 490 MHD-O Mahony 2 Maidenhead RC 00:07:42:3
19 8 477 w17wsQ 2 Westminster Sch 00:07:44:1
23 9 484 SAA-2 2 Star & Arrow 00:07:44:5
24 10 492 CCS-Yate 2 Claires Court Sch 00:07:44:9
26 11 482 GLB-Sullivan 2 Globe 00:07:45:9
29 12 476 LTU-Mayhew 2 Latymer Upper Sch 00:07:48:2
36 13 479 NSC-Burrell 2 Norwich Sch 00:07:51:9
40 14 488 OUN-Davis Gimeno 2 Oundle Sch 00:07:54:4
42 15 475 KCA-Edgar, 2 Kings Sch Canterbury 00:07:55:9
49 16 480 ASL-Troyer 2 American Sch 00:08:00:2
53 17 489 NOW-Swithenbank 2 Northwich RC 00:08:01:1
66 18 474 ABV-Andre 2 A B Severn 00:08:05:1
76 19 481 EMA-Wilson 2 Emanuel Sch 00:08:09:9
88 20 494 MOC-Jones 2 Monmouth Comprehensive Sch 00:08:13:4
111 21 493 LTU-Hussey 2 Latymer Upper Sch 00:08:20:0
113 22 485 TFN-Morris 2 Tiffin Sch 00:08:20:2
144 23 487 HWG-18A 2 RGS High Wycombe 00:08:28:5
158 24 483 SES-Peiker 2 St Edwards Sch 00:08:31:9
294 25 486 TKC-Demargne 2 Team Keane 00:09:00:9
Scratched 491 CHH- J16 4x- 2 Charterhouse Sch BC 00:00:00:0
Scratched 495 HAM - Warrington 2 Hampton Sch BC 00:00:00:0
Scratched 471 MAR-Long 2 Marlow RC 00:00:00:0
Scratched 478 STA-Molloy 2 Star Club 00:00:00:0
Category: W.J18A.4x-
80 1 574 HED-Little 2 Headington Sch 00:08:11:2
104 2 575 MBC-A 2 Molesey BC 00:08:18:7
131 3 586 HEN-Morgan 2 Henley RC 00:08:24:3
137 4 579 LEH 2 Lady E Holles 00:08:27:7
138 5 577 LTU-Nelson 2 Latymer Upper Sch 00:08:27:8
151 6 580 LLA-Wright 2 Llandaff RC 00:08:29:8
169 7 584 NOW-Wolstencroft 2 Northwich RC 00:08:33:9
171 8 581 SWP-Taylor 2 Sir William Perkins s Sch 00:08:34:2
176 9 576 TRC-Munyard 2 Thames RC 00:08:36:1
191 10 593 ASL-Bake 2 American Sch 00:08:39:7
199 11 578 COX-Millard 2 City of Oxford 00:08:41:1
200 12 587 BMS-Monaghan 2 Bedford Modern Sch 00:08:41:2
218 13 590 MBC-B 2 Molesey BC 00:08:43:8
235 14 589 SWP-Dugas 2 Sir William Perkins s Sch 00:08:47:2
272 15 588 ABV-Surman 2 A B Severn 00:08:57:1
313 16 597 CAN-Doyle 2 Canford Sch 00:09:06:4
341 17 585 LYT-Tombolis 2 LYR Tradesmen 00:09:13:5
347 18 594 COX-Clempson 2 City of Oxford 00:09:15:2
398 19 591 MHD-Howell 2 Maidenhead RC 00:09:28:0
400 20 592 LYT-Thomson 2 LYR Tradesmen 00:09:28:3
429 21 598 BAE-Arney 2 Barn Elms 00:09:40:5
436 22 595 KCS-Nicol 2 Kings College Sch 00:09:43:8
Scratched 596 LTU-Marshall 2 Latymer Upper Sch 00:00:00:0
Scratched 582 STA-Upex 2 Star Club 00:00:00:0
Scratched 583 WBK-Suter 2 Walbrook 00:00:00:0
Category: J15A.4x+
71 1 228 HEN-Swinburn 1 Henley RC 00:08:07:3
110 2 663 TSS-Murphie 2 Tideway Scullers Sch 00:08:19:8
126 3 654 ABV-Sayers 2 A B Severn 00:08:23:3
127 4 653 WLT-McLennan 2 Walton RC 00:08:23:4
128 5 660 WBS-Howe 2 Windsor Boys Sch 00:08:23:4
132 6 656 CCS-Nash 2 Claires Court Sch 00:08:24:5
140 7 231 HEN-Beattie 1 Henley RC 00:08:28:2
156 8 659 HWG-A 15 2 RGS High Wycombe 00:08:31:3
160 9 658 MHD-Overturf 2 Maidenhead RC 00:08:32:0
178 10 657 MBC-A 2 Molesey BC 00:08:36:6
190 11 679 HEN-McLellan 2 Henley RC 00:08:39:3
192 12 664 WBS-Potts 2 Windsor Boys Sch 00:08:40:0
224 13 685 WBS-Islam 2 Windsor Boys Sch 00:08:45:7
242 14 674 HWG-B 15 2 RGS High Wycombe 00:08:49:3
260 15 672 WBS-Blake 2 Windsor Boys Sch 00:08:53:6
278 16 667 CCS-Falck Award 2 Claires Court Sch 00:08:57:6
290 17 681 GMS-Bradley 2 Gt Marlow Sch 00:08:59:8
299 18 673 TKC-Sprackling 2 Team Keane 00:09:01:5
312 19 662 MGN-Buckland 2 Magdalen Coll Sch 00:09:06:3
315 20 677 ROS-Clatworthy 2 Ross RC 00:09:06:8
330 21 678 MGN-Bradbery 2 Magdalen Coll Sch 00:09:10:1
345 22 671 TFN-Trovalusci 2 Tiffin Sch 00:09:14:2
358 23 655 WBS-Davis 2 Windsor Boys Sch 00:09:17:6
366 24 661 MOC-Chilcott 2 Monmouth Comprehensive Sch 00:09:19:2
387 25 680 DUL-Endurance 2 Dulwich Coll 00:09:24:8
389 26 675 MBC-B 2 Molesey BC 00:09:26:0
404 27 229 KSE-SCHOOL B 1 Kings Sch Ely 00:09:29:6
428 28 665 TKC-Esin 2 Team Keane 00:09:40:3
450 29 234 Hampton 1 Hampton Sch BC 00:09:53:8
456 30 687 KCA-Dominic 2 Kings Sch Canterbury 00:10:03:3
Scratched 668 ASL-Gorrivan 2 American Sch 00:00:00:0
Scratched 230 BRY-Pollock 1 Bryanston Sch 00:00:00:0
Scratched 232 BRY-Chadwick 1 Bryanston Sch 00:00:00:0
Scratched 669 BRY- J15 4x+ T.O. 1 2 Bryanston Sch 00:00:00:0
Scratched 686 BRY- J15 4x+ T.O. 2 2 Bryanston Sch 00:00:00:0
Scratched 670 CAN-Herrington 2 Canford Sch 00:00:00:0
Scratched 676 CHH-Campbell-Wilson 2 Charterhouse Sch BC 00:00:00:0
Scratched 682 CCS-Hall 2 Claires Court Sch 00:00:00:0
Scratched 233 GMS-Rhodes 1 Gt Marlow Sch 00:00:00:0
Scratched 666 RAD-Wakeley 2 Radley College 00:00:00:0
Scratched 683 TKC-Hulme 2 Team Keane 00:00:00:0
Scratched 684 TFN-Herath 2 Tiffin Sch 00:00:00:0
Category: W.J15A.4x+
179 1 265 LTU-A 1 Latymer Upper Sch 00:08:36:6
184 2 277 HEN-Hills 1 Henley RC 00:08:38:7
188 3 690 TSS-Lack 2 Tideway Scullers Sch 00:08:39:1
196 4 278 LTU-B 1 Latymer Upper Sch 00:08:40:6
232 5 275 LEH-Cross 1 Lady E Holles 00:08:46:4
241 6 691 HED-Milne 2 Headington Sch 00:08:49:2
246 7 270 SBT-Sutton 1 Surbiton H Sch 00:08:50:0
251 8 273 COX-Stringer 1 City of Oxford 00:08:52:4
254 9 280 LEH-Deol 1 Lady E Holles 00:08:52:7
266 10 281 BKS-Mckean 1 Becket RC 00:08:56:3
328 11 705 SHV-Lee 2 Shiplake Vikings 00:09:09:9
331 12 692 WLT-Catlin 2 Walton RC 00:09:10:1
333 13 274 SBT-Sanders 1 Surbiton H Sch 00:09:10:5
334 14 702 ROS-Ryan 2 Ross RC 00:09:10:9
340 15 703 MOC-Harrison 2 Monmouth Comprehensive Sch 00:09:12:7
344 16 689 LEH-Pillay 2 Lady E Holles 00:09:13:8
368 17 269 NOW-Sperring-Toy 2 Northwich RC 00:09:19:3
370 18 693 SWP-Jordan 2 Sir William Perkins s Sch 00:09:19:6
371 19 697 ABV-Jones 2 A B Severn 00:09:20:2
395 20 696 BMS-Eales 2 Bedford Modern Sch 00:09:27:4
402 21 700 TKC-Egelie 2 Team Keane 00:09:29:3
411 22 694 MBC-Catling-Hall 2 Molesey BC 00:09:32:2
413 23 701 SPG-Davidson 2 St Pauls Girls Sch BC 00:09:33:9
425 24 709 SWP-Martin 2 Sir William Perkins s Sch 00:09:39:3
430 25 268 LYT-Newhouse 1 LYR Tradesmen 00:09:41:2
438 26 713 BMS-Andrew 2 Bedford Modern Sch 00:09:44:0
444 27 710 GMS-Smith 2 Gt Marlow Sch 00:09:50:4
446 28 276 SPG-Stuart-Smith 1 St Pauls Girls Sch BC 00:09:51:2
448 29 699 NSC-WJ154x+ 2 Norwich Sch 00:09:52:8
453 30 695 WHS-Bassadone 2 Wimbledon High Sch 00:09:55:3
454 31 706 HED-Shah 2 Headington Sch 00:09:58:2
464 32 707 KGS-1 2 Kingston G Sch 00:10:14:6
468 33 698 KCA-Josie 2 Kings Sch Canterbury 00:10:26:7
470 34 714 WHS-Ellis 2 Wimbledon High Sch 00:10:31:1
471 35 708 WHS-Crawford Collins 2 Wimbledon High Sch 00:10:33:8
472 36 712 TKC-Nichols 2 Team Keane 00:10:39:9
473 37 271 ASL-Benami Narasimhan 1 American Sch 00:10:54:0
Scratched 272 BAE-Oliver 1 Barn Elms 00:00:00:0
Scratched 704 CAN-Marley 2 Canford Sch 00:00:00:0
Scratched 711 GLB-Steven 2 Globe 00:00:00:0
Scratched 282 LTU-C 1 Latymer Upper Sch 00:00:00:0
Scratched 279 MAR-Clark-Pratt 1 Marlow RC 00:00:00:0
Scratched 267 SWP-Phelps 1 Sir William Perkins s Sch 00:00:00:0
Scratched 266 WRC-Campbell 1 Wallingford RC 00:00:00:0
Category: W.J18A.2-
288 1 114 LEH 1 Lady E Holles 00:08:59:4
298 2 116 HEN-Jonsson 1 Henley RC 00:09:01:5
338 3 112 HEN-Edwards 1 Henley RC 00:09:12:5
383 4 120 HED-Butler 1 Headington Sch 00:09:24:5
390 5 113 HED-Haskins 1 Headington Sch 00:09:26:4
420 6 119 WLT-Alexopoulos 1 Walton RC 00:09:37:6
461 7 115 BAE-Gracey 1 Barn Elms 00:10:07:2
Scratched 117 HED-Stephens 1 Headington Sch 00:00:00:0
Scratched 118 MAR-Fennell 1 Marlow RC 00:00:00:0
Category: J15A.2x
167 1 246 GLB-Watson-Gandy 1 Globe 00:08:33:2
193 2 239 TSS-de St Croix 1 Tideway Scullers Sch 00:08:40:2
194 3 237 MHD-Overturf 1 Maidenhead RC 00:08:40:3
209 4 236 MBC-Boret 1 Molesey BC 00:08:42:6
236 5 238 WBS-van Gelderen 1 Windsor Boys Sch 00:08:47:2
263 6 240 NSC-J15 V 1 Norwich Sch 00:08:55:5
286 7 245 MHD-Hughes 1 Maidenhead RC 00:08:59:0
287 8 242 WBS-Frobisher 1 Windsor Boys Sch 00:08:59:2
317 9 248 TSS-Thompson 1 Tideway Scullers Sch 00:09:07:3
318 10 235 WLT-Kiss 1 Walton RC 00:09:07:3
342 11 243 MBC-Williams 1 Molesey BC 00:09:13:6
393 12 247 BAE-Woods 1 Barn Elms 00:09:27:4
399 13 241 HWG-A 2x 15 1 RGS High Wycombe 00:09:28:2
Scratched 244 WRC-Mangion 1 Wallingford RC 00:00:00:0
Category: J16A.4x-
20 1 514 WLT-Suphi 2 Walton RC 00:07:44:2
31 2 512 TSS-Hill 2 Tideway Scullers Sch 00:07:49:3
47 3 525 GLB-Bees 2 Globe 00:07:59:4
52 4 515 HEN-Issa 2 Henley RC 00:08:00:9
61 5 524 MOC-Williams 2 Monmouth Comprehensive Sch 00:08:04:0
68 6 522 HWG - 16A 2 RGS High Wycombe 00:08:06:0
84 7 516 WBS-Philipson 2 Windsor Boys Sch 00:08:12:2
89 8 513 MBC-Miller 2 Molesey BC 00:08:13:6
118 9 520 NSC-Davis 2 Norwich Sch 00:08:21:0
136 10 531 WBS-Tebbit 2 Windsor Boys Sch 00:08:26:9
161 11 527 BKS-IWANSKYJ 2 Becket RC 00:08:32:3
168 12 529 TFN-Lambert 2 Tiffin Sch 00:08:33:7
182 13 532 WLT-Nienow 2 Walton RC 00:08:38:3
227 14 534 MGN-Galloway 2 Magdalen Coll Sch 00:08:46:1
245 15 526 EMA-Silver 2 Emanuel Sch 00:08:49:8
382 16 530 WGT-Pringle 2 Whitgift Sch BC 00:09:23:8
Scratched 517 CCS-Broadhead 2 Claires Court Sch 00:00:00:0
Scratched 528 CCS-Hall 2 Claires Court Sch 00:00:00:0
Scratched 519 LOS Rolls 2 Lon Oratory Sch 00:00:00:0
Scratched 518 MAR-Marshall 2 Marlow RC 00:00:00:0
Scratched 523 RAD-Rhodes 2 Radley College 00:00:00:0
Scratched 521 STA-White 2 Star Club 00:00:00:0
Scratched 533 WRR-Hall 2 Worcester RC 00:00:00:0
Category: W.J18A.8+
67 1 570 BKS-Richards 2 Becket RC 00:08:05:3
79 2 562 HEN-BUTTERWORTH 2 Henley RC 00:08:10:8
94 3 565 HED-Butler 2 Headington Sch 00:08:16:0
106 4 564 LEH 2 Lady E Holles 00:08:18:8
115 5 567 SBT-Brister-Runnacles 2 Surbiton H Sch 00:08:20:7
147 6 572 PHS 2 Putney High Sch 00:08:29:1
148 7 571 GMS-Jobbagy 2 Gt Marlow Sch 00:08:29:2
170 8 566 SPG-Valt 2 St Pauls Girls Sch BC 00:08:34:0
203 9 568 EMA-Thomas 2 Emanuel Sch 00:08:41:8
226 10 573 KCA-Abbott 2 Kings Sch Canterbury 00:08:46:0
228 11 569 KGS- Girls 2 Kingston G Sch 00:08:46:3
Scratched 563 MAR-Strudwick 2 Marlow RC 00:00:00:0
Category: J18A.4+
25 1 159 Stark 1 Eton Coll 00:07:45:0
58 2 170 Targaryen 1 Eton Coll 00:08:02:2
59 3 164 BDS-Eggeling 1 Bedford Sch 00:08:02:3
72 4 162 Lannister 1 Eton Coll 00:08:09:1
77 5 160 BMS-Colliver 1 Bedford Modern Sch 00:08:10:2
97 6 163 LOS Joseph 1 Lon Oratory Sch 00:08:16:8
105 7 168 WIN-Davidson 1 Winchester Coll 00:08:18:8
133 8 165 LTU-Ward 1 Latymer Upper Sch 00:08:25:2
153 9 166 HAM-Wright 1 Hampton Sch BC 00:08:30:1
204 10 167 GMS-Westfold 1 Gt Marlow Sch 00:08:42:1
237 11 169 CAN-Jack 1 Canford Sch 00:08:47:7
297 12 171 HAM - Linqvist 1 Hampton Sch BC 00:09:01:3
401 13 161 CAN-Hosking 1 Canford Sch 00:09:29:0
Category: W.JSchA.4-
157 1 178 SPG-Valt 1 St Pauls Girls Sch BC 00:08:31:9
162 2 174 LEH-Taylor 1 Lady E Holles 00:08:32:4
177 3 639 LEH 2 Lady E Holles 00:08:36:4
183 4 175 HEN-Lock 1 Henley RC 00:08:38:5
214 5 177 GMS-Armes 1 Gt Marlow Sch 00:08:43:2
219 6 176 BMS-Graham 1 Bedford Modern Sch 00:08:44:6
257 7 173 SBT-Brister-Runnacles 1 Surbiton H Sch 00:08:53:3
348 8 640 WLT-Gray 2 Walton RC 00:09:15:4
Category: J16A.4+
87 1 186 KRC-Cramp 1 Kingston RC 00:08:12:8
99 2 198 NSC-Hook 1 Norwich Sch 00:08:17:9
129 3 190 LOS Davies 1 Lon Oratory Sch 00:08:24:1
154 4 185 SPS-2 1 St Pauls Sch BC 00:08:30:2
159 5 194 BMS-Herbert 1 Bedford Modern Sch 00:08:31:9
180 6 187 HAM-Georghiades 1 Hampton Sch BC 00:08:36:8
186 7 191 SPS-3 1 St Pauls Sch BC 00:08:38:8
201 8 179 ETN-Bewicke-Copley 1 Eton Coll 00:08:41:5
208 9 188 ETN- Jain 1 Eton Coll 00:08:42:6
270 10 189 KGS J16 1 Kingston G Sch 00:08:56:7
283 11 193 HAM-Chan 1 Hampton Sch BC 00:08:58:6
285 12 195 ETN-Howard 1 Eton Coll 00:08:58:8
291 13 181 CAN-Bartlett 1 Canford Sch 00:09:00:3
319 14 192 LVA-Tuohy 1 LVS Ascot BC 00:09:07:6
440 15 183 WGT-Pringle 1 Whitgift Sch BC 00:09:45:3
Scratched 197 BRY-Wilson 1 Bryanston Sch 00:00:00:0
Scratched 688 BRY-J16 4+ T.O. 2 Bryanston Sch 00:00:00:0
Scratched 184 DUL-Polaris 1 Dulwich Coll 00:00:00:0
Scratched 196 LVA-Crisp 1 LVS Ascot BC 00:00:00:0
Scratched 182 MAR-Denson 1 Marlow RC 00:00:00:0
Scratched 180 SES-Moore 1 St Edwards Sch 00:00:00:0
Category: W.J18A.4+
259 1 207 PHS-J18 1 Putney High Sch 00:08:53:6
274 2 206 HEN-Sotnick 1 Henley RC 00:08:57:2
276 3 199 LEH-bowyer 1 Lady E Holles 00:08:57:4
284 4 209 LEH-Mason 1 Lady E Holles 00:08:58:7
289 5 200 HED-Smith 1 Headington Sch 00:08:59:5
307 6 208 MBC-Parker 1 Molesey BC 00:09:04:6
343 7 205 BMS-Ball 1 Bedford Modern Sch 00:09:13:6
377 8 204 HAB-Hunter 1 HMSG RC 00:09:21:9
451 9 210 CAN-Doyle 1 Canford Sch 00:09:54:2
Scratched 201 HAB-Du Toit 1 HMSG RC 00:00:00:0
Scratched 203 MAR-Strudwick 1 Marlow RC 00:00:00:0
Scratched 202 SPG-Lewis 1 St Pauls Girls Sch BC 00:00:00:0
Category: J18A.8+
1 1 452 WinColl8+ 2 Winchester Coll 00:07:04:9
2 2 451 RAD-Corner 2 Radley College 00:07:13:4
3 3 453 HAMPTON 2 Hampton Sch BC 00:07:13:4
4 4 462 Mr Fantastic 2 Eton Coll 00:07:14:5
5 5 456 Invisible Woman 2 Eton Coll 00:07:20:4
6 6 457 MBC-Hardy 2 Molesey BC 00:07:21:5
7 7 459 BDS-Lamb 2 Bedford Sch 00:07:23:5
8 8 458 DUL-Turnbull 2 Dulwich Coll 00:07:28:3
14 9 455 LOS Dickens 2 Lon Oratory Sch 00:07:38:1
18 10 461 GMS-Cunningham 2 Gt Marlow Sch 00:07:43:7
21 11 464 BMS-Colliver 2 Bedford Modern Sch 00:07:44:3
22 12 466 LLA-Wing 2 Llandaff RC 00:07:44:4
37 13 463 EMA-St Aubyn 2 Emanuel Sch 00:07:52:4
41 14 465 ORA-Kibble 2 Oratory Sch 00:07:55:1
93 15 460 CAN-Evans 2 Canford Sch 00:08:15:9
Scratched 454 SES-Dei Rossi 2 St Edwards Sch 00:00:00:0
Category: J16A.8+
34 1 506 LTU-Harrison 2 Latymer Upper Sch 00:07:50:2
35 2 502 Black 2 St Pauls Sch BC 00:07:50:4
54 3 504 RAD-Taylor 2 Radley College 00:08:02:1
56 4 510 LOS Jinks 2 Lon Oratory Sch 00:08:02:1
69 5 508 BMS-Herbert 2 Bedford Modern Sch 00:08:06:6
83 6 509 KGS J16 2 Kingston G Sch 00:08:12:1
109 7 505 ETN- Tanaka 2 Eton Coll 00:08:19:8
247 8 511 ETN-Honnor 2 Eton Coll 00:08:50:1
Scratched 507 DUL-Howard 2 Dulwich Coll 00:00:00:0
Scratched 503 17ws16 8 2 Westminster Sch 00:00:00:0
Category: J15A.8+
38 1 552 Thompson 2 Kings College Sch 00:07:53:2
43 2 545 LTU-J15A 2 Latymer Upper Sch 00:07:56:2
44 3 544 SPS A 2 St Pauls Sch BC 00:07:56:5
50 4 556 LOS Yanez-Cunningham 2 Lon Oratory Sch 00:08:00:4
51 5 548 HEN-Swinburn 2 Henley RC 00:08:00:5
57 6 542 17ws15 8x 2 Westminster Sch 00:08:02:1
60 7 553 HAM-O Sullivan 2 Hampton Sch BC 00:08:03:8
63 8 560 J15A.8+ 2 Winchester Coll 00:08:04:4
70 9 549 KCA-Kahol de Jong 2 Kings Sch Canterbury 00:08:07:1
73 10 543 HAM-Orme 2 Hampton Sch BC 00:08:09:4
82 11 551 SES-Colson Lake 2 St Edwards Sch 00:08:11:8
86 12 547 DUL-Shackleton 2 Dulwich Coll 00:08:12:8
96 13 550 RAD-Senior 2 Radley College 00:08:16:7
102 14 557 NSC-J15 I 2 Norwich Sch 00:08:18:4
107 15 559 BDS-Celeritas2 2 Bedford Sch 00:08:19:0
121 16 546 BDS-Murray 2 Bedford Sch 00:08:21:7
141 17 554 BMS-Fox 2 Bedford Modern Sch 00:08:28:3
143 18 558 WGT-Moisley 2 Whitgift Sch BC 00:08:28:4
155 19 561 KGS- Farrer 2 Kingston G Sch 00:08:30:6
282 20 555 CAN-J15 2 Canford Sch 00:08:58:1
Category: W.J16A.4x-
149 1 631 HEN-O Donohue 2 Henley RC 00:08:29:4
198 2 619 HED-Van Der Merwe 2 Headington Sch 00:08:40:8
205 3 623 LTU-Hdjw 2 Latymer Upper Sch 00:08:42:1
216 4 625 TSS-van Wachem 2 Tideway Scullers Sch 00:08:43:6
223 5 632 NOW-Shirley 2 Northwich RC 00:08:45:7
258 6 637 LTU-Seal 2 Latymer Upper Sch 00:08:53:5
273 7 630 KSE-Garrett 2 Kings Sch Ely 00:08:57:2
275 8 622 COX-Turner-Frick 2 City of Oxford 00:08:57:3
301 9 627 WLT-Stenning 2 Walton RC 00:09:02:4
305 10 628 MOC-Richards 2 Monmouth Comprehensive Sch 00:09:04:0
311 11 626 TRC-Kelly 2 Thames RC 00:09:06:3
335 12 621 MBC-Henderson 2 Molesey BC 00:09:11:4
339 13 629 BMS-Hale 2 Bedford Modern Sch 00:09:12:5
360 14 633 SES-Prower 2 St Edwards Sch 00:09:18:4
433 15 638 CAN-Hewett 2 Canford Sch 00:09:41:5
449 16 635 TKC-Keene 2 Team Keane 00:09:53:6
Scratched 620 MAR-Brooks 2 Marlow RC 00:00:00:0
Scratched 624 SHV-Hatlee 2 Shiplake Vikings 00:00:00:0
Scratched 634 SBT-Richards 2 Surbiton H Sch 00:00:00:0
Scratched 636 WRR-Silvester 2 Worcester RC 00:00:00:0
Category: J18A.2-
116 1 29 MBC-A 1 Molesey BC 00:08:20:8
119 2 30 HAM-Worthington 1 Hampton Sch BC 00:08:21:1
122 3 41 MBC-B 1 Molesey BC 00:08:21:7
142 4 42 HAM - MT 1 Hampton Sch BC 00:08:28:4
145 5 36 LLA-Davies 1 Llandaff RC 00:08:28:8
164 6 38 NSC-Bacic 1 Norwich Sch 00:08:32:5
189 7 40 MHD-Somerville 1 Maidenhead RC 00:08:39:1
220 8 43 MBC-C 1 Molesey BC 00:08:45:0
231 9 35 BDS-Mitchell 1 Bedford Sch 00:08:46:4
239 10 31 NSC-Cann 1 Norwich Sch 00:08:48:4
244 11 44 NSC-Burrell 1 Norwich Sch 00:08:49:8
261 12 32 WLT-Jenkinson 1 Walton RC 00:08:54:8
262 13 45 LVA-Oliver 1 LVS Ascot BC 00:08:55:1
281 14 37 WLT-Cleary 1 Walton RC 00:08:57:8
Time Only 34 KGS/KCA -Spurling/Allinson 1 Kingston GS/Kings Canterbury 00:08:24:0
Scratched 33 MAR-Smith 1 Marlow RC 00:00:00:0
Scratched 39 TSS-Hatteland-Dunn 1 Tideway Scullers Sch 00:00:00:0
Category: J15A.4+
92 1 249 LTU-J15A 1 Latymer Upper Sch 00:08:14:8
146 2 259 WLT-O Neill 1 Walton RC 00:08:28:9
150 3 254 HAM-A 1 Hampton Sch BC 00:08:29:5
163 4 250 SPS 1 1 St Pauls Sch BC 00:08:32:5
166 5 251 LOS Kaleta 1 Lon Oratory Sch 00:08:33:0
172 6 255 LTU-B 1 Latymer Upper Sch 00:08:34:5
206 7 262 HAM-B 1 Hampton Sch BC 00:08:42:3
212 8 263 LTU-J15C 1 Latymer Upper Sch 00:08:42:9
217 9 253 NSC-J15 III 1 Norwich Sch 00:08:43:8
280 10 264 HAM-C 1 Hampton Sch BC 00:08:57:7
329 11 252 BDS-Lorna 1 Bedford Sch 00:09:10:0
384 12 258 NSC-J15 IV 1 Norwich Sch 00:09:24:6
434 13 260 KGS-Thom 1 Kingston G Sch 00:09:42:1
Scratched 256 SPS 2 1 St Pauls Sch BC 00:00:00:0
Scratched 261 SPS-Daniel 1 St Pauls Sch BC 00:00:00:0
Scratched 257 WEY-Shore 1 Weybridge RC 00:00:00:0
Category: J18A.8+ 2nd VIII
15 1 497 HAM - Trevor 2 Hampton Sch BC 00:07:41:5
27 2 499 DUL-Alleyn 2 Dulwich Coll 00:07:46:1
32 3 500 BDS -2 2 Bedford Sch 00:07:49:3
33 4 501 Human Torch 2 Eton Coll 00:07:49:5
45 5 496 The Thing 2 Eton Coll 00:07:56:9
90 6 498 RAD-House 2 Radley College 00:08:14:1
Category: J15A.8+ 2nd VIII
95 1 602 Guns 2 Kings College Sch 00:08:16:4
112 2 600 RAD-Berry 2 Radley College 00:08:20:0
120 3 604 NSC-J15 II 2 Norwich Sch 00:08:21:7
135 4 606 LOS Chapman 2 Lon Oratory Sch 00:08:25:6
152 5 603 WES-Odusanya 2 Westminster Sch 00:08:29:8
175 6 599 SPS 1 2 St Pauls Sch BC 00:08:35:8
181 7 605 HAM-Birchall 2 Hampton Sch BC 00:08:37:7
265 8 608 BDS-Burton 2 Bedford Sch 00:08:56:2
308 9 610 HAM-Hettiaratchy 2 Hampton Sch BC 00:09:04:8
391 10 607 KGS- Stroud mk 2 2 Kingston G Sch 00:09:26:8
Scratched 601 LTU-J15B 2 Latymer Upper Sch 00:00:00:0
Scratched 609 SPS 2 2 St Pauls Sch BC 00:00:00:0
Category: W.J16A.4+
249 1 215 LEA-Froggatt-Brown 1 Lea RC 00:08:51:4
293 2 214 LTU-Jones 1 Latymer Upper Sch 00:09:00:9
295 3 213 TSS-Joss 1 Tideway Scullers Sch 00:09:01:1
323 4 212 PHS-Zedda James 1 Putney High Sch 00:09:08:4
336 5 217 LEH 1 Lady E Holles 00:09:11:8
351 6 220 EMA-Beams 1 Emanuel Sch 00:09:16:2
367 7 216 GMS-Peace 1 Gt Marlow Sch 00:09:19:2
392 8 226 GLT-Lane 1 Godolphin Sch 00:09:26:9
403 9 221 KGS-GJ16 4+ 1 Kingston G Sch 00:09:29:4
407 10 225 HAB-Blagbrough 1 HMSG RC 00:09:30:4
416 11 219 GLT-Bryant 1 Godolphin Sch 00:09:34:6
431 12 222 CAN-Hewett 1 Canford Sch 00:09:41:4
460 13 223 WHS-Wong 1 Wimbledon High Sch 00:10:06:1
Time Only 227 SWP - Z 1 Sir William Perkins s Sch 00:09:15:1
Scratched 218 MAR-Berry 1 Marlow RC 00:00:00:0
Scratched 224 SES-Cope 1 St Edwards Sch 00:00:00:0
Category: W.J15A.8+
117 1 642 LTU-A 2 Latymer Upper Sch 00:08:20:8
123 2 644 HEN-Howard 2 Henley RC 00:08:22:3
139 3 643 LEH-Cross 2 Lady E Holles 00:08:28:1
221 4 645 EMA-Holmes 2 Emanuel Sch 00:08:45:4
256 5 650 GLT-Turner 2 Godolphin Sch 00:08:53:1
267 6 646 SBT-Mustafa 2 Surbiton H Sch 00:08:56:4
268 7 649 PHS-Newsholme 2 Putney High Sch 00:08:56:5
332 8 651 EMA-Polak 2 Emanuel Sch 00:09:10:2
359 9 648 KGS-1 2 Kingston G Sch 00:09:18:2
414 10 647 CAN-Milner 2 Canford Sch 00:09:33:9
Scratched 652 LYT-Newhouse 2 LYR Tradesmen 00:00:00:0
Category: J16A.8+ 2nd VIII
48 1 541 RAD-Redley 2 Radley College 00:07:59:8
85 2 540 HAM-Chan 2 Hampton Sch BC 00:08:12:3
Scratched 539 DUL-Tatman 2 Dulwich Coll 00:00:00:0
Category: J16A.2-
165 1 147 WLT-Heywood 1 Walton RC 00:08:32:9
238 2 149 HAM-Andrews 1 Hampton Sch BC 00:08:47:9
240 3 142 HAM-Woodall 1 Hampton Sch BC 00:08:48:9
250 4 146 HAM-Bridge 1 Hampton Sch BC 00:08:51:6
320 5 151 LTU-Harrison 1 Latymer Upper Sch 00:09:08:0
325 6 150 KGS-J16 1 Kingston G Sch 00:09:08:9
326 7 141 ETN-Vignial 1 Eton Coll 00:09:09:0
356 8 143 LTU-Rowland 1 Latymer Upper Sch 00:09:17:4
363 9 152 ETN-Hodson 1 Eton Coll 00:09:19:0
373 10 144 ETN-Pooley 1 Eton Coll 00:09:20:9
406 11 148 ETN-Whiteley 1 Eton Coll 00:09:30:3
Scratched 145 TSS-Pilkington Massey 1 Tideway Scullers Sch 00:00:00:0
Category: JSchA.4-
28 1 153 HAM- SENIOR 4- 1 Hampton Sch BC 00:07:47:3
30 2 154 LTU-Traeger 1 Latymer Upper Sch 00:07:48:8
46 3 155 GMS-Peace 1 Gt Marlow Sch 00:07:57:7
55 4 157 MBC A 1 Molesey BC 00:08:02:1
65 5 158 HAM-Cockett 1 Hampton Sch BC 00:08:04:9
74 6 536 NSC-Bacic 2 Norwich Sch 00:08:09:6
75 7 535 WLT-Pickering 2 Walton RC 00:08:09:7
130 8 156 LOS Jones 1 Lon Oratory Sch 00:08:24:1
Category: J16A.4-
81 1 537 HAM-Woodall 2 Hampton Sch BC 00:08:11:3
98 2 538 HAM-Bridge 2 Hampton Sch BC 00:08:16:9
230 3 172 GMS-Honey 1 Gt Marlow Sch 00:08:46:4
Category: W.J15A.4+
215 1 317 KRC-A 1 Kingston RC 00:08:43:5
271 2 312 HEN-Drury 1 Henley RC 00:08:56:9
302 3 314 PHS-Bridges 1 Putney High Sch 00:09:02:7
324 4 320 KRC-B 1 Kingston RC 00:09:08:4
355 5 310 LEH-Guest 1 Lady E Holles 00:09:17:0
365 6 313 KGS-1 1 Kingston G Sch 00:09:19:1
376 7 315 SES-Thomas 1 St Edwards Sch 00:09:21:8
412 8 318 HAB-Frankel 1 HMSG RC 00:09:32:5
445 9 316 KGS-2 1 Kingston G Sch 00:09:51:0
Scratched 319 GMS-Fisher 1 Gt Marlow Sch 00:00:00:0
Scratched 321 KGS-3 1 Kingston G Sch 00:00:00:0
Scratched 311 SBT-Mustafa 1 Surbiton H Sch 00:00:00:0
Category: W.J16A.8+
187 1 611 HED-Grainger 2 Headington Sch 00:08:39:1
195 2 614 Leh 2 Lady E Holles 00:08:40:5
210 3 618 LEA-Millard 2 Lea RC 00:08:42:7
222 4 613 SWP-Wax 2 Sir William Perkins s Sch 00:08:45:6
264 5 612 HAB-Frankel 2 HMSG RC 00:08:56:1
304 6 615 SPG-Boot 2 St Pauls Girls Sch BC 00:09:04:0
Scratched 617 PHS 2 Putney High Sch 00:00:00:0
Scratched 616 WEY-Brosnan 2 Weybridge RC 00:00:00:0
Category: W.J16A.4-
300 1 211 LEH-Noursadeghi 1 Lady E Holles 00:09:01:7
362 2 641 MHD-Harding 2 Maidenhead RC 00:09:18:9